createdAt,value
2023-04-16T00:01:15.562Z,21.65
2023-04-16T00:03:42.225Z,21.45
2023-04-16T00:06:11.062Z,22.08
2023-04-16T00:08:37.501Z,20.67
2023-04-16T00:11:05.633Z,23.00
2023-04-16T00:13:32.551Z,24.52
2023-04-16T00:15:59.170Z,22.15
2023-04-16T00:18:26.138Z,21.45
2023-04-16T00:20:53.405Z,23.38
2023-04-16T00:23:20.664Z,24.60
2023-04-16T00:25:47.290Z,24.02
2023-04-16T00:28:13.865Z,21.48
2023-04-16T00:30:40.500Z,21.00
2023-04-16T00:33:07.055Z,21.40
2023-04-16T00:35:33.466Z,20.38
2023-04-16T00:37:59.913Z,20.65
2023-04-16T00:40:30.116Z,19.77
2023-04-16T00:42:56.674Z,22.58
2023-04-16T00:45:23.412Z,18.92
2023-04-16T00:47:50.042Z,19.02
2023-04-16T00:50:17.688Z,18.80
2023-04-16T00:52:47.260Z,19.27
2023-04-16T00:55:15.050Z,18.58
2023-04-16T00:57:41.605Z,20.38
2023-04-16T01:00:08.734Z,21.65
2023-04-16T01:02:35.539Z,20.60
2023-04-16T01:05:03.305Z,19.05
2023-04-16T01:07:29.773Z,19.80
2023-04-16T01:09:56.504Z,17.90
2023-04-16T01:12:23.381Z,17.98
2023-04-16T01:14:50.071Z,16.92
2023-04-16T01:17:16.624Z,14.95
2023-04-16T01:19:43.060Z,15.30
2023-04-16T01:22:09.744Z,18.63
2023-04-16T01:24:36.585Z,15.05
2023-04-16T01:27:03.129Z,18.60
2023-04-16T01:29:29.620Z,15.55
2023-04-16T01:31:57.676Z,16.75
2023-04-16T01:34:36.080Z,15.63
2023-04-16T01:37:04.044Z,17.05
2023-04-16T01:39:30.518Z,15.93
2023-04-16T01:41:57.639Z,17.73
2023-04-16T01:44:24.157Z,17.25
2023-04-16T01:46:50.599Z,15.98
2023-04-16T01:49:17.224Z,17.10
2023-04-16T01:51:43.951Z,17.30
2023-04-16T01:54:10.578Z,17.85
2023-04-16T01:56:37.058Z,19.33
2023-04-16T01:59:03.619Z,18.20
2023-04-16T02:01:36.022Z,19.95
2023-04-16T02:04:03.543Z,21.85
2023-04-16T02:06:31.522Z,22.08
2023-04-16T02:08:58.005Z,21.90
2023-04-16T02:11:26.327Z,20.58
2023-04-16T02:13:53.149Z,21.15
2023-04-16T02:16:19.777Z,20.30
2023-04-16T02:18:56.232Z,23.00
2023-04-16T02:21:23.914Z,19.17
2023-04-16T02:23:51.721Z,19.10
2023-04-16T02:26:22.674Z,18.95
2023-04-16T02:28:49.939Z,19.05
2023-04-16T02:31:19.586Z,20.05
2023-04-16T02:33:47.643Z,22.38
2023-04-16T02:36:14.543Z,20.67
2023-04-16T02:38:41.173Z,22.42
2023-04-16T02:41:08.022Z,23.17
2023-04-16T02:43:34.559Z,23.77
2023-04-16T02:46:01.841Z,27.27
2023-04-16T02:48:28.392Z,27.65
2023-04-16T02:50:54.884Z,26.83
2023-04-16T02:53:21.529Z,28.17
2023-04-16T02:55:55.759Z,29.85
2023-04-16T02:58:24.735Z,26.23
2023-04-16T03:00:52.392Z,30.35
2023-04-16T03:03:19.383Z,22.45
2023-04-16T03:05:45.989Z,26.17
2023-04-16T03:08:12.570Z,24.58
2023-04-16T03:10:39.154Z,26.30
2023-04-16T03:13:05.695Z,26.05
2023-04-16T03:15:32.216Z,26.98
2023-04-16T03:17:59.309Z,24.80
2023-04-16T03:20:26.192Z,25.17
2023-04-16T03:22:53.159Z,27.00
2023-04-16T03:25:19.808Z,24.90
2023-04-16T03:27:46.304Z,24.40
2023-04-16T03:30:14.925Z,25.38
2023-04-16T03:32:41.902Z,25.00
2023-04-16T03:35:09.672Z,26.15
2023-04-16T03:37:37.118Z,25.48
2023-04-16T03:40:05.789Z,28.00
2023-04-16T03:42:32.550Z,25.95
2023-04-16T03:44:59.407Z,23.52
2023-04-16T03:47:26.348Z,23.20
2023-04-16T03:49:56.291Z,23.08
2023-04-16T03:52:22.781Z,26.48
2023-04-16T03:54:49.254Z,24.98
2023-04-16T03:57:24.298Z,23.33
2023-04-16T03:59:51.480Z,24.75
2023-04-16T04:02:18.557Z,18.67
2023-04-16T04:04:45.266Z,22.10
2023-04-16T04:07:11.828Z,22.90
2023-04-16T04:09:38.770Z,22.17
2023-04-16T04:12:05.271Z,20.95
2023-04-16T04:14:33.022Z,22.80
2023-04-16T04:16:59.969Z,19.60
2023-04-16T04:19:26.381Z,20.98
2023-04-16T04:21:52.937Z,22.67
2023-04-16T04:24:19.401Z,19.90
2023-04-16T04:26:46.139Z,24.42
2023-04-16T04:29:13.878Z,23.65
2023-04-16T04:31:40.823Z,25.55
2023-04-16T04:34:07.716Z,21.60
2023-04-16T04:36:34.386Z,23.45
2023-04-16T04:39:01.365Z,23.48
2023-04-16T04:41:28.066Z,21.10
2023-04-16T04:43:54.539Z,23.02
2023-04-16T04:46:21.258Z,23.15
2023-04-16T04:48:47.777Z,24.85
2023-04-16T04:51:16.188Z,26.50
2023-04-16T04:53:43.852Z,32.28
2023-04-16T04:56:12.641Z,37.83
2023-04-16T04:58:40.968Z,41.47
2023-04-16T05:01:07.452Z,45.22
2023-04-16T05:03:34.014Z,39.22
2023-04-16T05:06:00.690Z,46.65
2023-04-16T05:08:27.182Z,38.28
2023-04-16T05:10:53.642Z,36.58
2023-04-16T05:13:20.070Z,39.10
2023-04-16T05:15:46.717Z,37.75
2023-04-16T05:18:13.150Z,45.58
2023-04-16T05:20:39.663Z,46.08
2023-04-16T05:23:06.095Z,47.50
2023-04-16T05:25:32.585Z,49.95
2023-04-16T05:27:59.082Z,48.00
2023-04-16T05:30:25.507Z,48.53
2023-04-16T05:32:51.900Z,45.55
2023-04-16T05:35:18.577Z,51.97
2023-04-16T05:37:45.207Z,52.88
2023-04-16T05:40:14.019Z,45.30
2023-04-16T05:42:40.506Z,44.20
2023-04-16T05:45:07.462Z,41.90
2023-04-16T05:47:33.908Z,39.95
2023-04-16T05:50:00.344Z,35.38
2023-04-16T05:52:26.933Z,46.95
2023-04-16T05:54:53.491Z,43.30
2023-04-16T05:57:19.964Z,41.30
2023-04-16T05:59:46.392Z,47.83
2023-04-16T06:02:12.962Z,42.78
2023-04-16T06:04:39.455Z,49.25
2023-04-16T06:07:06.198Z,49.95
2023-04-16T06:09:32.660Z,50.50
2023-04-16T06:11:59.712Z,57.58
2023-04-16T06:14:26.161Z,51.78
2023-04-16T06:16:52.604Z,51.38
2023-04-16T06:19:19.181Z,46.95
2023-04-16T06:21:45.860Z,48.95
2023-04-16T06:24:13.150Z,46.40
2023-04-16T06:26:39.743Z,46.17
2023-04-16T06:29:06.202Z,50.80
2023-04-16T06:31:32.843Z,42.05
2023-04-16T06:33:59.266Z,43.08
2023-04-16T06:36:27.508Z,43.67
2023-04-16T06:38:53.942Z,46.85
2023-04-16T06:41:22.693Z,46.17
2023-04-16T06:43:49.453Z,39.45
2023-04-16T06:46:15.962Z,43.10
2023-04-16T06:48:42.517Z,42.58
2023-04-16T06:51:09.080Z,36.15
2023-04-16T06:53:37.524Z,38.15
2023-04-16T06:56:04.587Z,39.08
2023-04-16T06:58:31.116Z,41.08
2023-04-16T07:00:57.753Z,35.65
2023-04-16T07:03:24.489Z,40.85
2023-04-16T07:05:51.277Z,40.33
2023-04-16T07:08:17.765Z,32.63
2023-04-16T07:10:44.471Z,36.13
2023-04-16T07:13:11.056Z,32.03
2023-04-16T07:15:37.540Z,28.75
2023-04-16T07:18:04.275Z,29.63
2023-04-16T07:20:30.753Z,26.15
2023-04-16T07:22:59.234Z,27.95
2023-04-16T07:25:26.851Z,28.55
2023-04-16T07:27:53.367Z,29.08
2023-04-16T07:30:19.767Z,27.92
2023-04-16T07:32:46.372Z,26.55
2023-04-16T07:35:12.830Z,28.10
2023-04-16T07:37:39.263Z,29.10
2023-04-16T07:40:06.841Z,26.60
2023-04-16T07:42:33.322Z,24.05
2023-04-16T07:44:59.737Z,24.98
2023-04-16T07:47:27.103Z,25.85
2023-04-16T07:49:53.809Z,29.15
2023-04-16T07:52:20.404Z,27.23
2023-04-16T07:54:47.075Z,28.30
2023-04-16T07:57:13.552Z,26.58
2023-04-16T07:59:40.124Z,31.65
2023-04-16T08:02:07.230Z,28.23
2023-04-16T08:04:33.816Z,24.67
2023-04-16T08:07:00.539Z,25.40
2023-04-16T08:09:28.480Z,24.40
2023-04-16T08:11:54.997Z,23.63
2023-04-16T08:14:21.468Z,24.77
2023-04-16T08:16:47.881Z,23.60
2023-04-16T08:19:14.312Z,25.05
2023-04-16T08:21:40.929Z,23.92
2023-04-16T08:24:07.400Z,26.08
2023-04-16T08:26:33.813Z,27.00
2023-04-16T08:29:00.268Z,25.52
2023-04-16T08:31:26.944Z,24.17
2023-04-16T08:33:53.481Z,21.55
2023-04-16T08:36:19.906Z,23.27
2023-04-16T08:38:46.648Z,25.73
2023-04-16T08:41:13.519Z,20.40
2023-04-16T08:43:44.703Z,24.23
2023-04-16T08:46:12.158Z,22.50
2023-04-16T08:48:38.922Z,22.75
2023-04-16T08:51:09.775Z,24.23
2023-04-16T08:53:47.600Z,22.87
2023-04-16T08:56:15.755Z,23.17
2023-04-16T08:58:42.304Z,21.70
2023-04-16T09:01:11.252Z,24.30
2023-04-16T09:03:37.970Z,23.92
2023-04-16T09:06:04.986Z,21.58
2023-04-16T09:08:32.172Z,21.58
2023-04-16T09:10:59.583Z,21.95
2023-04-16T09:13:26.776Z,26.73
2023-04-16T09:15:54.383Z,24.42
2023-04-16T09:18:21.380Z,23.20
2023-04-16T09:20:52.169Z,20.33
2023-04-16T09:23:18.615Z,24.70
2023-04-16T09:25:45.141Z,22.05
2023-04-16T09:28:11.731Z,23.88
2023-04-16T09:30:38.358Z,34.25
2023-04-16T09:33:22.215Z,20.92
2023-04-16T09:35:50.764Z,29.80
2023-04-16T09:38:17.544Z,22.52
2023-04-16T09:40:44.183Z,20.55
2023-04-16T09:43:14.147Z,23.17
2023-04-16T09:45:54.856Z,22.58
2023-04-16T09:48:32.703Z,20.73
2023-04-16T09:51:00.284Z,19.85
2023-04-16T09:53:31.415Z,23.10
2023-04-16T09:55:59.803Z,28.42
2023-04-16T09:58:26.643Z,24.55
2023-04-16T10:01:00.850Z,22.73
2023-04-16T10:03:32.013Z,22.15
2023-04-16T10:06:06.849Z,18.80
2023-04-16T10:08:33.327Z,25.17
2023-04-16T10:10:59.859Z,32.03
2023-04-16T10:13:31.104Z,22.58
2023-04-16T10:15:57.884Z,25.20
2023-04-16T10:18:24.591Z,21.77
2023-04-16T10:20:51.166Z,21.65
2023-04-16T10:23:19.358Z,23.38
2023-04-16T10:25:47.624Z,23.40
2023-04-16T10:28:15.283Z,20.77
2023-04-16T10:30:48.249Z,23.38
2023-04-16T10:33:15.136Z,20.63
2023-04-16T10:35:41.597Z,22.77
2023-04-16T10:38:27.920Z,18.80
2023-04-16T10:41:03.901Z,19.38
2023-04-16T10:43:31.470Z,17.98
2023-04-16T10:45:58.042Z,18.33
2023-04-16T10:48:27.420Z,18.80
2023-04-16T10:50:57.677Z,22.98
2023-04-16T10:53:26.721Z,17.15
2023-04-16T10:55:57.725Z,18.70
2023-04-16T10:58:28.825Z,17.70
2023-04-16T11:00:55.223Z,20.23
2023-04-16T11:03:21.891Z,16.05
2023-04-16T11:05:48.555Z,23.83
2023-04-16T11:08:16.415Z,15.20
2023-04-16T11:10:42.854Z,13.55
2023-04-16T11:13:12.812Z,15.07
2023-04-16T11:15:39.334Z,15.68
2023-04-16T11:18:06.910Z,15.68
2023-04-16T11:20:33.619Z,14.35
2023-04-16T11:23:00.268Z,12.50
2023-04-16T11:25:33.955Z,14.55
2023-04-16T11:28:02.267Z,15.73
2023-04-16T11:30:36.551Z,13.63
2023-04-16T11:33:08.841Z,13.52
2023-04-16T11:35:35.585Z,15.88
2023-04-16T11:38:02.221Z,11.60
2023-04-16T11:40:31.778Z,11.88
2023-04-16T11:43:14.529Z,12.60
2023-04-16T11:45:56.936Z,8.95
2023-04-16T11:48:23.345Z,10.20
2023-04-16T11:50:57.081Z,8.85
2023-04-16T11:53:23.762Z,8.10
2023-04-16T11:55:50.439Z,8.27
2023-04-16T11:58:17.018Z,8.45
2023-04-16T12:00:45.070Z,8.68
2023-04-16T12:03:11.828Z,9.23
2023-04-16T12:05:39.615Z,8.48
2023-04-16T12:08:08.408Z,8.40
2023-04-16T12:10:53.642Z,10.25
2023-04-16T12:13:20.259Z,9.55
2023-04-16T12:15:49.071Z,9.15
2023-04-16T12:18:16.557Z,11.20
2023-04-16T12:20:44.109Z,9.25
2023-04-16T12:23:27.997Z,10.63
2023-04-16T12:25:55.194Z,8.40
2023-04-16T12:28:29.900Z,8.73
2023-04-16T12:30:56.530Z,8.38
2023-04-16T12:33:23.189Z,7.60
2023-04-16T12:35:50.522Z,10.25
2023-04-16T12:38:17.334Z,8.23
2023-04-16T12:40:44.081Z,8.88
2023-04-16T12:43:10.711Z,10.52
2023-04-16T12:45:39.395Z,13.00
2023-04-16T12:48:06.485Z,9.40
2023-04-16T12:50:33.151Z,8.60
2023-04-16T12:52:59.726Z,9.23
2023-04-16T12:55:26.161Z,10.25
2023-04-16T12:57:53.023Z,11.63
2023-04-16T13:00:20.400Z,12.50
2023-04-16T13:02:47.436Z,12.40
2023-04-16T13:05:16.443Z,12.55
2023-04-16T13:07:43.092Z,13.15
2023-04-16T13:10:09.986Z,10.88
2023-04-16T13:12:36.682Z,11.52
2023-04-16T13:15:03.300Z,11.73
2023-04-16T13:17:29.781Z,13.73
2023-04-16T13:19:56.193Z,13.20
2023-04-16T13:22:23.270Z,12.15
2023-04-16T13:24:49.849Z,14.40
2023-04-16T13:27:16.819Z,13.85
2023-04-16T13:29:43.338Z,13.30
2023-04-16T13:32:09.840Z,13.98
2023-04-16T13:34:36.528Z,13.65
2023-04-16T13:37:03.040Z,14.20
2023-04-16T13:39:29.523Z,14.43
2023-04-16T13:41:55.974Z,15.30
2023-04-16T13:44:22.423Z,16.85
2023-04-16T13:46:49.674Z,12.82
2023-04-16T13:49:16.194Z,16.33
2023-04-16T13:51:44.594Z,16.40
2023-04-16T13:54:11.051Z,18.02
2023-04-16T13:56:37.772Z,16.83
2023-04-16T13:59:04.180Z,16.52
2023-04-16T14:01:30.785Z,19.30
2023-04-16T14:03:57.276Z,18.15
2023-04-16T14:06:23.732Z,22.05
2023-04-16T14:08:50.280Z,16.73
2023-04-16T14:11:16.782Z,17.52
2023-04-16T14:13:43.326Z,18.48
2023-04-16T14:16:09.814Z,16.98
2023-04-16T14:18:40.948Z,18.67
2023-04-16T14:21:07.778Z,17.65
2023-04-16T14:23:34.276Z,19.42
2023-04-16T14:26:00.751Z,16.17
2023-04-16T14:28:27.166Z,22.60
2023-04-16T14:30:53.614Z,18.77
2023-04-16T14:33:20.099Z,21.60
2023-04-16T14:35:46.756Z,20.60
2023-04-16T14:38:13.234Z,21.17
2023-04-16T14:40:39.700Z,22.00
2023-04-16T14:43:07.326Z,21.15
2023-04-16T14:45:33.826Z,23.15
2023-04-16T14:48:00.452Z,24.85
2023-04-16T14:50:26.923Z,30.65
2023-04-16T14:52:54.484Z,31.15
2023-04-16T14:55:21.555Z,27.13
2023-04-16T14:57:47.952Z,33.78
2023-04-16T15:00:18.618Z,27.02
2023-04-16T15:02:47.163Z,27.97
2023-04-16T15:05:13.910Z,35.25
2023-04-16T15:07:40.404Z,28.95
2023-04-16T15:10:08.975Z,30.70
2023-04-16T15:12:35.473Z,30.80
2023-04-16T15:15:02.063Z,35.42
2023-04-16T15:17:28.606Z,39.55
2023-04-16T15:19:55.133Z,31.58
2023-04-16T15:22:21.623Z,28.60
2023-04-16T15:24:48.117Z,32.03
2023-04-16T15:27:14.709Z,30.83
2023-04-16T15:29:41.152Z,26.45
2023-04-16T15:32:07.565Z,29.67
2023-04-16T15:34:34.763Z,30.75
2023-04-16T15:37:01.199Z,29.35
2023-04-16T15:39:27.678Z,32.45
2023-04-16T15:42:01.175Z,38.03
2023-04-16T15:44:28.175Z,36.90
2023-04-16T15:46:54.674Z,37.35
2023-04-16T15:49:21.156Z,44.70
2023-04-16T15:51:47.616Z,39.88
2023-04-16T15:54:14.060Z,35.38
2023-04-16T15:56:40.595Z,34.17
2023-04-16T15:59:08.071Z,33.03
2023-04-16T16:01:34.754Z,31.73
2023-04-16T16:04:07.305Z,33.30
2023-04-16T16:06:34.267Z,34.40
2023-04-16T16:09:00.866Z,37.08
2023-04-16T16:11:27.533Z,39.03
2023-04-16T16:13:54.022Z,38.95
2023-04-16T16:16:21.642Z,37.75
2023-04-16T16:18:48.244Z,42.80
2023-04-16T16:21:14.764Z,39.60
2023-04-16T16:23:41.268Z,40.55
2023-04-16T16:26:07.701Z,41.95
2023-04-16T16:28:37.451Z,50.88
2023-04-16T16:31:07.224Z,39.72
2023-04-16T16:33:33.678Z,49.53
2023-04-16T16:36:00.159Z,45.88
2023-04-16T16:38:27.004Z,44.45
2023-04-16T16:40:53.474Z,40.25
2023-04-16T16:43:20.246Z,43.72
2023-04-16T16:45:47.121Z,41.20
2023-04-16T16:48:13.682Z,43.92
2023-04-16T16:50:40.190Z,47.58
2023-04-16T16:53:06.708Z,42.35
2023-04-16T16:55:33.360Z,52.40
2023-04-16T16:57:59.811Z,45.67
2023-04-16T17:00:26.276Z,49.83
2023-04-16T17:02:52.913Z,52.80
2023-04-16T17:05:19.880Z,46.75
2023-04-16T17:07:46.653Z,52.63
2023-04-16T17:10:20.106Z,56.88
2023-04-16T17:12:50.961Z,52.90
2023-04-16T17:15:20.555Z,54.70
2023-04-16T17:17:48.235Z,52.50
2023-04-16T17:20:15.510Z,54.53
2023-04-16T17:22:42.349Z,52.75
2023-04-16T17:25:09.115Z,53.13
2023-04-16T17:27:35.903Z,50.35
2023-04-16T17:30:05.246Z,56.05
2023-04-16T17:32:32.782Z,42.45
2023-04-16T17:35:00.942Z,39.65
2023-04-16T17:37:27.768Z,41.45
2023-04-16T17:39:54.291Z,44.30
2023-04-16T17:42:20.998Z,41.42
2023-04-16T17:44:47.612Z,41.45
2023-04-16T17:47:14.180Z,48.85
2023-04-16T17:49:40.696Z,42.20
2023-04-16T17:52:07.201Z,39.13
2023-04-16T17:54:33.666Z,38.67
2023-04-16T17:57:00.483Z,38.92
2023-04-16T17:59:27.306Z,40.28
2023-04-16T18:01:54.733Z,36.70
2023-04-16T18:04:21.540Z,40.53
2023-04-16T18:06:48.376Z,37.08
2023-04-16T18:09:15.398Z,39.78
2023-04-16T18:11:41.818Z,36.40
2023-04-16T18:14:09.867Z,38.80
2023-04-16T18:16:36.703Z,44.03
2023-04-16T18:19:03.163Z,37.05
2023-04-16T18:21:30.247Z,42.60
2023-04-16T18:23:56.896Z,37.35
2023-04-16T18:26:23.377Z,35.47
2023-04-16T18:28:49.815Z,37.65
2023-04-16T18:31:18.422Z,42.00
2023-04-16T18:33:56.534Z,44.25
2023-04-16T18:36:24.571Z,43.67
2023-04-16T18:39:01.061Z,43.55
2023-04-16T18:41:38.039Z,45.38
2023-04-16T18:44:04.561Z,42.17
2023-04-16T18:46:31.002Z,38.13
2023-04-16T18:48:58.996Z,36.28
2023-04-16T18:51:27.009Z,37.50
2023-04-16T18:53:53.510Z,37.90
2023-04-16T18:56:20.092Z,40.08
2023-04-16T18:58:47.759Z,38.72
2023-04-16T19:01:14.431Z,40.38
2023-04-16T19:03:41.052Z,42.97
2023-04-16T19:06:07.788Z,38.80
2023-04-16T19:08:34.191Z,41.38
2023-04-16T19:11:00.737Z,38.08
2023-04-16T19:13:27.184Z,41.67
2023-04-16T19:16:01.358Z,43.40
2023-04-16T19:18:27.908Z,38.58
2023-04-16T19:21:01.094Z,37.70
2023-04-16T19:23:28.161Z,41.38
2023-04-16T19:25:57.785Z,37.67
2023-04-16T19:28:24.990Z,38.55
2023-04-16T19:30:52.316Z,38.88
2023-04-16T19:33:19.359Z,34.63
2023-04-16T19:35:46.696Z,39.72
2023-04-16T19:38:13.205Z,38.83
2023-04-16T19:40:40.284Z,37.75
2023-04-16T19:43:06.784Z,35.65
2023-04-16T19:45:33.305Z,33.67
2023-04-16T19:47:59.875Z,37.08
2023-04-16T19:50:26.322Z,34.55
2023-04-16T19:52:52.793Z,32.15
2023-04-16T19:55:19.265Z,31.58
2023-04-16T19:57:48.020Z,32.90
2023-04-16T20:00:14.910Z,33.35
2023-04-16T20:02:41.518Z,34.50
2023-04-16T20:05:08.601Z,30.75
2023-04-16T20:07:35.240Z,32.03
2023-04-16T20:10:02.815Z,33.80
2023-04-16T20:12:29.319Z,36.47
2023-04-16T20:14:55.922Z,30.17
2023-04-16T20:17:22.335Z,37.38
2023-04-16T20:19:49.648Z,36.85
2023-04-16T20:22:18.222Z,34.45
2023-04-16T20:24:47.781Z,32.88
2023-04-16T20:27:15.127Z,33.42
2023-04-16T20:29:41.790Z,33.95
2023-04-16T20:32:08.335Z,34.35
2023-04-16T20:34:34.825Z,30.95
2023-04-16T20:37:01.233Z,33.63
2023-04-16T20:39:27.779Z,30.38
2023-04-16T20:41:56.953Z,36.67
2023-04-16T20:44:32.941Z,31.83
2023-04-16T20:46:59.607Z,36.40
2023-04-16T20:49:26.024Z,31.35
2023-04-16T20:51:52.524Z,30.17
2023-04-16T20:54:19.059Z,34.25
2023-04-16T20:56:45.881Z,27.50
2023-04-16T20:59:13.306Z,30.52
2023-04-16T21:01:39.910Z,30.90
2023-04-16T21:04:06.729Z,34.60
2023-04-16T21:06:38.282Z,33.22
2023-04-16T21:09:06.032Z,32.72
2023-04-16T21:11:34.592Z,30.70
2023-04-16T21:14:01.848Z,30.70
2023-04-16T21:16:28.680Z,30.77
2023-04-16T21:18:56.074Z,28.17
2023-04-16T21:21:23.350Z,30.15
2023-04-16T21:23:50.399Z,31.52
2023-04-16T21:26:17.116Z,31.17
2023-04-16T21:28:43.549Z,31.63
2023-04-16T21:31:10.021Z,29.40
2023-04-16T21:33:36.571Z,30.95
2023-04-16T21:36:03.117Z,30.42
2023-04-16T21:38:29.535Z,36.05
2023-04-16T21:40:56.699Z,34.28
2023-04-16T21:43:23.871Z,34.45
2023-04-16T21:45:55.974Z,32.33
2023-04-16T21:48:22.694Z,32.03
2023-04-16T21:50:58.039Z,31.17
2023-04-16T21:53:31.890Z,34.05
2023-04-16T21:55:58.610Z,38.28
2023-04-16T21:58:27.742Z,37.55
2023-04-16T22:00:54.309Z,41.55
2023-04-16T22:03:27.720Z,35.70
2023-04-16T22:06:01.419Z,34.88
2023-04-16T22:08:31.542Z,41.05
2023-04-16T22:10:59.260Z,39.55
2023-04-16T22:13:26.295Z,32.38
2023-04-16T22:15:53.534Z,35.88
2023-04-16T22:18:20.330Z,36.30
2023-04-16T22:20:50.840Z,35.13
2023-04-16T22:23:17.442Z,33.95
2023-04-16T22:25:43.984Z,37.03
2023-04-16T22:28:10.556Z,36.70
2023-04-16T22:30:37.043Z,39.10
2023-04-16T22:33:03.845Z,32.60
2023-04-16T22:35:30.526Z,39.33
2023-04-16T22:37:57.103Z,38.42
2023-04-16T22:40:23.593Z,35.90
2023-04-16T22:42:50.332Z,37.42
2023-04-16T22:45:16.864Z,35.88
2023-04-16T22:47:44.029Z,42.05
2023-04-16T22:50:10.721Z,38.47
2023-04-16T22:52:37.134Z,39.28
2023-04-16T22:55:03.829Z,39.10
2023-04-16T22:57:30.503Z,36.25
2023-04-16T22:59:57.252Z,36.00
2023-04-16T23:02:23.881Z,44.60
2023-04-16T23:04:50.362Z,39.75
2023-04-16T23:07:16.930Z,43.40
2023-04-16T23:09:43.378Z,42.65
2023-04-16T23:12:09.792Z,42.80
2023-04-16T23:14:36.880Z,38.22
2023-04-16T23:17:03.611Z,39.80
2023-04-16T23:19:31.157Z,34.55
2023-04-16T23:21:57.995Z,34.55
2023-04-16T23:24:24.704Z,36.45
2023-04-16T23:26:52.445Z,36.03
2023-04-16T23:29:20.535Z,37.17
2023-04-16T23:31:47.191Z,33.97
2023-04-16T23:34:13.760Z,38.17
2023-04-16T23:36:40.780Z,37.03
2023-04-16T23:39:07.373Z,32.92
2023-04-16T23:41:34.180Z,33.97
2023-04-16T23:44:00.739Z,36.80
2023-04-16T23:46:27.589Z,36.13
2023-04-16T23:48:55.175Z,41.03
2023-04-16T23:51:21.962Z,37.45
2023-04-16T23:53:48.393Z,35.80
2023-04-16T23:56:15.867Z,35.90
2023-04-16T23:58:42.374Z,36.17
